sensor_id;sensor_type;location;lat;lon;timestamp;P1;durP1;ratioP1;P2;durP2;ratioP2
40953;SDS011;26686;50.130;8.710;2022-12-22T00:00:33;4.63;;;3.58;;
40953;SDS011;26686;50.130;8.710;2022-12-22T00:05:53;3.78;;;3.40;;
40953;SDS011;26686;50.130;8.710;2022-12-22T00:11:13;4.10;;;3.58;;
40953;SDS011;26686;50.130;8.710;2022-12-22T00:16:34;3.88;;;3.15;;
40953;SDS011;26686;50.130;8.710;2022-12-22T00:21:56;3.88;;;3.30;;
40953;SDS011;26686;50.130;8.710;2022-12-22T00:27:23;4.22;;;3.13;;
40953;SDS011;26686;50.130;8.710;2022-12-22T00:32:47;4.45;;;3.28;;
40953;SDS011;26686;50.130;8.710;2022-12-22T00:38:14;4.80;;;3.17;;
40953;SDS011;26686;50.130;8.710;2022-12-22T00:43:35;6.10;;;3.40;;
40953;SDS011;26686;50.130;8.710;2022-12-22T00:48:55;2.85;;;2.50;;
40953;SDS011;26686;50.130;8.710;2022-12-22T00:54:16;3.35;;;3.05;;
40953;SDS011;26686;50.130;8.710;2022-12-22T00:59:39;3.92;;;3.28;;
40953;SDS011;26686;50.130;8.710;2022-12-22T01:05:00;3.60;;;2.78;;
40953;SDS011;26686;50.130;8.710;2022-12-22T01:10:20;4.85;;;3.38;;
40953;SDS011;26686;50.130;8.710;2022-12-22T01:15:43;3.22;;;2.83;;
40953;SDS011;26686;50.130;8.710;2022-12-22T01:21:04;3.03;;;2.50;;
40953;SDS011;26686;50.130;8.710;2022-12-22T01:26:24;2.97;;;2.58;;
40953;SDS011;26686;50.130;8.710;2022-12-22T01:31:45;3.28;;;2.80;;
40953;SDS011;26686;50.130;8.710;2022-12-22T01:37:04;3.83;;;2.80;;
40953;SDS011;26686;50.130;8.710;2022-12-22T01:42:25;2.85;;;2.30;;
40953;SDS011;26686;50.130;8.710;2022-12-22T01:47:46;3.15;;;2.85;;
40953;SDS011;26686;50.130;8.710;2022-12-22T01:53:06;4.07;;;3.38;;
40953;SDS011;26686;50.130;8.710;2022-12-22T01:58:32;2.95;;;2.72;;
40953;SDS011;26686;50.130;8.710;2022-12-22T02:03:55;4.30;;;3.28;;
40953;SDS011;26686;50.130;8.710;2022-12-22T02:09:29;3.20;;;2.75;;
40953;SDS011;26686;50.130;8.710;2022-12-22T02:20:51;3.20;;;2.88;;
40953;SDS011;26686;50.130;8.710;2022-12-22T02:31:38;3.72;;;2.63;;
40953;SDS011;26686;50.130;8.710;2022-12-22T02:37:02;3.65;;;3.35;;
40953;SDS011;26686;50.130;8.710;2022-12-22T02:42:41;3.47;;;2.53;;
40953;SDS011;26686;50.130;8.710;2022-12-22T02:48:21;3.05;;;2.53;;
40953;SDS011;26686;50.130;8.710;2022-12-22T02:53:50;3.17;;;2.80;;
40953;SDS011;26686;50.130;8.710;2022-12-22T02:59:12;2.90;;;2.70;;
40953;SDS011;26686;50.130;8.710;2022-12-22T03:04:32;3.30;;;2.90;;
40953;SDS011;26686;50.130;8.710;2022-12-22T03:09:53;4.80;;;3.15;;
40953;SDS011;26686;50.130;8.710;2022-12-22T03:15:13;3.95;;;3.10;;
40953;SDS011;26686;50.130;8.710;2022-12-22T03:20:33;4.35;;;3.72;;
40953;SDS011;26686;50.130;8.710;2022-12-22T03:25:53;3.90;;;3.60;;
40953;SDS011;26686;50.130;8.710;2022-12-22T03:30:59;4.63;;;2.95;;
40953;SDS011;26686;50.130;8.710;2022-12-22T03:36:03;3.70;;;3.13;;
40953;SDS011;26686;50.130;8.710;2022-12-22T03:41:05;2.90;;;2.63;;
40953;SDS011;26686;50.130;8.710;2022-12-22T03:46:09;3.50;;;2.90;;
40953;SDS011;26686;50.130;8.710;2022-12-22T03:51:31;3.75;;;3.08;;
40953;SDS011;26686;50.130;8.710;2022-12-22T03:56:33;2.90;;;2.35;;
40953;SDS011;26686;50.130;8.710;2022-12-22T04:01:39;3.75;;;2.80;;
40953;SDS011;26686;50.130;8.710;2022-12-22T04:06:42;3.15;;;2.20;;
40953;SDS011;26686;50.130;8.710;2022-12-22T04:11:44;3.05;;;2.45;;
40953;SDS011;26686;50.130;8.710;2022-12-22T04:17:05;3.33;;;2.30;;
40953;SDS011;26686;50.130;8.710;2022-12-22T04:22:07;3.22;;;2.33;;
40953;SDS011;26686;50.130;8.710;2022-12-22T04:27:08;4.05;;;2.40;;
40953;SDS011;26686;50.130;8.710;2022-12-22T04:32:10;2.33;;;2.10;;
40953;SDS011;26686;50.130;8.710;2022-12-22T04:37:11;6.10;;;3.33;;
40953;SDS011;26686;50.130;8.710;2022-12-22T04:42:17;3.45;;;2.13;;
40953;SDS011;26686;50.130;8.710;2022-12-22T04:47:19;2.97;;;2.08;;
40953;SDS011;26686;50.130;8.710;2022-12-22T04:52:21;4.93;;;2.55;;
40953;SDS011;26686;50.130;8.710;2022-12-22T04:57:23;4.70;;;2.20;;
40953;SDS011;26686;50.130;8.710;2022-12-22T05:02:24;3.40;;;2.38;;
40953;SDS011;26686;50.130;8.710;2022-12-22T05:07:26;2.15;;;1.77;;
40953;SDS011;26686;50.130;8.710;2022-12-22T05:12:28;4.63;;;2.17;;
40953;SDS011;26686;50.130;8.710;2022-12-22T05:17:48;3.78;;;1.85;;
40953;SDS011;26686;50.130;8.710;2022-12-22T05:22:49;4.18;;;2.75;;
40953;SDS011;26686;50.130;8.710;2022-12-22T05:27:50;4.30;;;1.90;;
40953;SDS011;26686;50.130;8.710;2022-12-22T05:32:52;6.03;;;2.72;;
40953;SDS011;26686;50.130;8.710;2022-12-22T05:37:53;3.35;;;2.10;;
40953;SDS011;26686;50.130;8.710;2022-12-22T05:42:55;5.43;;;2.60;;
40953;SDS011;26686;50.130;8.710;2022-12-22T05:47:56;6.32;;;2.38;;
40953;SDS011;26686;50.130;8.710;2022-12-22T05:52:58;4.00;;;2.00;;
40953;SDS011;26686;50.130;8.710;2022-12-22T05:57:59;2.63;;;1.73;;
40953;SDS011;26686;50.130;8.710;2022-12-22T06:03:02;2.75;;;2.05;;
40953;SDS011;26686;50.130;8.710;2022-12-22T06:08:03;3.83;;;2.05;;
40953;SDS011;26686;50.130;8.710;2022-12-22T06:13:05;1.83;;;1.48;;
40953;SDS011;26686;50.130;8.710;2022-12-22T06:18:06;1.48;;;1.10;;
40953;SDS011;26686;50.130;8.710;2022-12-22T06:23:08;2.97;;;1.65;;
40953;SDS011;26686;50.130;8.710;2022-12-22T06:28:09;2.45;;;1.25;;
40953;SDS011;26686;50.130;8.710;2022-12-22T06:33:10;1.75;;;1.00;;
40953;SDS011;26686;50.130;8.710;2022-12-22T06:38:12;2.05;;;0.82;;
40953;SDS011;26686;50.130;8.710;2022-12-22T06:43:13;1.73;;;0.80;;
40953;SDS011;26686;50.130;8.710;2022-12-22T06:48:14;3.42;;;1.00;;
40953;SDS011;26686;50.130;8.710;2022-12-22T06:53:16;1.15;;;0.75;;
40953;SDS011;26686;50.130;8.710;2022-12-22T06:58:17;2.80;;;1.00;;
40953;SDS011;26686;50.130;8.710;2022-12-22T07:03:19;1.77;;;0.63;;
40953;SDS011;26686;50.130;8.710;2022-12-22T07:08:21;1.20;;;0.65;;
40953;SDS011;26686;50.130;8.710;2022-12-22T07:13:23;3.55;;;0.70;;
40953;SDS011;26686;50.130;8.710;2022-12-22T07:18:30;2.60;;;0.60;;
40953;SDS011;26686;50.130;8.710;2022-12-22T07:23:34;2.05;;;0.55;;
40953;SDS011;26686;50.130;8.710;2022-12-22T07:28:36;2.00;;;1.30;;
40953;SDS011;26686;50.130;8.710;2022-12-22T07:33:39;1.58;;;0.60;;
40953;SDS011;26686;50.130;8.710;2022-12-22T07:38:42;2.38;;;0.52;;
40953;SDS011;26686;50.130;8.710;2022-12-22T07:43:45;3.75;;;0.70;;
40953;SDS011;26686;50.130;8.710;2022-12-22T07:48:47;3.58;;;0.70;;
40953;SDS011;26686;50.130;8.710;2022-12-22T07:54:08;2.25;;;0.77;;
40953;SDS011;26686;50.130;8.710;2022-12-22T07:59:11;2.97;;;0.80;;
40953;SDS011;26686;50.130;8.710;2022-12-22T08:04:13;3.35;;;1.33;;
40953;SDS011;26686;50.130;8.710;2022-12-22T08:09:15;3.20;;;1.55;;
40953;SDS011;26686;50.130;8.710;2022-12-22T08:14:18;2.03;;;1.10;;
40953;SDS011;26686;50.130;8.710;2022-12-22T08:19:19;3.05;;;1.00;;
40953;SDS011;26686;50.130;8.710;2022-12-22T08:24:21;3.20;;;1.02;;
40953;SDS011;26686;50.130;8.710;2022-12-22T08:29:23;4.07;;;1.13;;
40953;SDS011;26686;50.130;8.710;2022-12-22T08:34:29;3.65;;;1.02;;
40953;SDS011;26686;50.130;8.710;2022-12-22T08:39:32;2.10;;;0.90;;
40953;SDS011;26686;50.130;8.710;2022-12-22T08:44:37;5.68;;;0.80;;
40953;SDS011;26686;50.130;8.710;2022-12-22T08:49:41;6.53;;;0.90;;
40953;SDS011;26686;50.130;8.710;2022-12-22T08:54:43;2.78;;;0.90;;
40953;SDS011;26686;50.130;8.710;2022-12-22T08:59:45;2.15;;;0.73;;
40953;SDS011;26686;50.130;8.710;2022-12-22T09:04:48;2.15;;;0.80;;
40953;SDS011;26686;50.130;8.710;2022-12-22T09:09:49;1.75;;;0.70;;
40953;SDS011;26686;50.130;8.710;2022-12-22T09:14:51;4.30;;;1.33;;
40953;SDS011;26686;50.130;8.710;2022-12-22T09:19:52;3.53;;;1.10;;
40953;SDS011;26686;50.130;8.710;2022-12-22T09:24:54;5.07;;;1.52;;
40953;SDS011;26686;50.130;8.710;2022-12-22T09:29:55;4.38;;;1.75;;
40953;SDS011;26686;50.130;8.710;2022-12-22T09:34:57;5.32;;;1.13;;
40953;SDS011;26686;50.130;8.710;2022-12-22T09:39:58;6.18;;;2.00;;
40953;SDS011;26686;50.130;8.710;2022-12-22T09:44:59;6.30;;;1.63;;
40953;SDS011;26686;50.130;8.710;2022-12-22T09:50:02;4.93;;;1.30;;
40953;SDS011;26686;50.130;8.710;2022-12-22T09:55:50;7.13;;;2.03;;
40953;SDS011;26686;50.130;8.710;2022-12-22T10:00:32;6.10;;;1.88;;
40953;SDS011;26686;50.130;8.710;2022-12-22T10:05:46;5.45;;;1.80;;
40953;SDS011;26686;50.130;8.710;2022-12-22T10:10:54;5.78;;;1.83;;
40953;SDS011;26686;50.130;8.710;2022-12-22T10:15:56;5.15;;;1.48;;
40953;SDS011;26686;50.130;8.710;2022-12-22T10:21:11;3.63;;;1.33;;
40953;SDS011;26686;50.130;8.710;2022-12-22T10:26:24;4.63;;;1.27;;
40953;SDS011;26686;50.130;8.710;2022-12-22T10:31:32;5.75;;;1.60;;
40953;SDS011;26686;50.130;8.710;2022-12-22T10:36:35;6.40;;;1.98;;
40953;SDS011;26686;50.130;8.710;2022-12-22T10:41:42;4.32;;;1.10;;
40953;SDS011;26686;50.130;8.710;2022-12-22T10:46:48;5.40;;;1.27;;
40953;SDS011;26686;50.130;8.710;2022-12-22T11:07:21;3.75;;;1.60;;
40953;SDS011;26686;50.130;8.710;2022-12-22T11:12:28;3.20;;;1.05;;
40953;SDS011;26686;50.130;8.710;2022-12-22T11:33:54;3.65;;;0.93;;
40953;SDS011;26686;50.130;8.710;2022-12-22T11:39:12;3.17;;;1.17;;
40953;SDS011;26686;50.130;8.710;2022-12-22T11:44:29;2.92;;;1.40;;
40953;SDS011;26686;50.130;8.710;2022-12-22T11:55:30;4.63;;;1.23;;
40953;SDS011;26686;50.130;8.710;2022-12-22T12:00:38;4.20;;;1.17;;
40953;SDS011;26686;50.130;8.710;2022-12-22T12:06:08;4.32;;;0.98;;
40953;SDS011;26686;50.130;8.710;2022-12-22T12:11:34;2.75;;;0.93;;
40953;SDS011;26686;50.130;8.710;2022-12-22T12:27:43;3.28;;;1.55;;
40953;SDS011;26686;50.130;8.710;2022-12-22T12:32:22;2.42;;;0.98;;
40953;SDS011;26686;50.130;8.710;2022-12-22T12:37:29;1.77;;;0.95;;
40953;SDS011;26686;50.130;8.710;2022-12-22T12:42:40;2.83;;;0.98;;
40953;SDS011;26686;50.130;8.710;2022-12-22T12:47:45;1.15;;;0.70;;
40953;SDS011;26686;50.130;8.710;2022-12-22T12:57:48;3.35;;;1.45;;
40953;SDS011;26686;50.130;8.710;2022-12-22T13:02:57;1.02;;;0.70;;
40953;SDS011;26686;50.130;8.710;2022-12-22T13:08:10;1.77;;;0.93;;
40953;SDS011;26686;50.130;8.710;2022-12-22T13:24:13;3.20;;;1.40;;
40953;SDS011;26686;50.130;8.710;2022-12-22T13:34:43;9.38;;;1.92;;
40953;SDS011;26686;50.130;8.710;2022-12-22T13:45:36;1.20;;;0.73;;
40953;SDS011;26686;50.130;8.710;2022-12-22T13:50:45;1.30;;;0.93;;
40953;SDS011;26686;50.130;8.710;2022-12-22T13:55:49;2.05;;;1.05;;
40953;SDS011;26686;50.130;8.710;2022-12-22T14:01:01;1.58;;;1.20;;
40953;SDS011;26686;50.130;8.710;2022-12-22T14:06:32;1.45;;;1.08;;
40953;SDS011;26686;50.130;8.710;2022-12-22T14:11:36;1.00;;;0.70;;
40953;SDS011;26686;50.130;8.710;2022-12-22T14:16:42;2.78;;;1.38;;
40953;SDS011;26686;50.130;8.710;2022-12-22T14:21:46;2.28;;;1.20;;
40953;SDS011;26686;50.130;8.710;2022-12-22T14:26:52;2.97;;;0.70;;
40953;SDS011;26686;50.130;8.710;2022-12-22T14:31:55;1.90;;;1.02;;
40953;SDS011;26686;50.130;8.710;2022-12-22T14:37:02;1.65;;;0.80;;
40953;SDS011;26686;50.130;8.710;2022-12-22T14:42:04;1.02;;;0.90;;
40953;SDS011;26686;50.130;8.710;2022-12-22T14:47:16;2.20;;;1.20;;
40953;SDS011;26686;50.130;8.710;2022-12-22T15:02:47;0.90;;;0.40;;
40953;SDS011;26686;50.130;8.710;2022-12-22T15:07:53;0.55;;;0.30;;
40953;SDS011;26686;50.130;8.710;2022-12-22T15:13:22;1.17;;;0.60;;
40953;SDS011;26686;50.130;8.710;2022-12-22T15:18:25;1.65;;;0.30;;
40953;SDS011;26686;50.130;8.710;2022-12-22T15:23:28;1.23;;;0.55;;
40953;SDS011;26686;50.130;8.710;2022-12-22T15:28:30;0.55;;;0.40;;
40953;SDS011;26686;50.130;8.710;2022-12-22T15:33:31;0.60;;;0.40;;
40953;SDS011;26686;50.130;8.710;2022-12-22T15:38:33;0.90;;;0.50;;
40953;SDS011;26686;50.130;8.710;2022-12-22T15:43:39;1.02;;;0.38;;
40953;SDS011;26686;50.130;8.710;2022-12-22T15:48:59;1.55;;;0.50;;
40953;SDS011;26686;50.130;8.710;2022-12-22T15:54:00;1.63;;;0.25;;
40953;SDS011;26686;50.130;8.710;2022-12-22T15:59:03;1.10;;;0.82;;
40953;SDS011;26686;50.130;8.710;2022-12-22T16:04:05;1.63;;;0.70;;
40953;SDS011;26686;50.130;8.710;2022-12-22T16:09:15;2.10;;;1.10;;
40953;SDS011;26686;50.130;8.710;2022-12-22T16:14:21;1.48;;;0.65;;
40953;SDS011;26686;50.130;8.710;2022-12-22T16:19:23;0.70;;;0.60;;
40953;SDS011;26686;50.130;8.710;2022-12-22T16:24:25;1.73;;;0.52;;
40953;SDS011;26686;50.130;8.710;2022-12-22T16:29:30;2.50;;;0.50;;
40953;SDS011;26686;50.130;8.710;2022-12-22T16:34:31;1.58;;;0.43;;
40953;SDS011;26686;50.130;8.710;2022-12-22T16:39:33;2.13;;;1.00;;
40953;SDS011;26686;50.130;8.710;2022-12-22T16:44:34;1.70;;;0.80;;
40953;SDS011;26686;50.130;8.710;2022-12-22T16:49:53;2.55;;;1.50;;
40953;SDS011;26686;50.130;8.710;2022-12-22T16:54:55;7.35;;;4.97;;
40953;SDS011;26686;50.130;8.710;2022-12-22T16:59:56;2.67;;;0.90;;
40953;SDS011;26686;50.130;8.710;2022-12-22T17:04:57;1.70;;;1.10;;
40953;SDS011;26686;50.130;8.710;2022-12-22T17:10:01;1.23;;;1.07;;
40953;SDS011;26686;50.130;8.710;2022-12-22T17:15:03;2.38;;;1.52;;
40953;SDS011;26686;50.130;8.710;2022-12-22T17:20:05;3.63;;;1.58;;
40953;SDS011;26686;50.130;8.710;2022-12-22T17:25:10;2.33;;;1.30;;
40953;SDS011;26686;50.130;8.710;2022-12-22T17:30:18;2.17;;;1.65;;
40953;SDS011;26686;50.130;8.710;2022-12-22T17:35:25;2.67;;;1.23;;
40953;SDS011;26686;50.130;8.710;2022-12-22T17:40:28;3.53;;;2.03;;
40953;SDS011;26686;50.130;8.710;2022-12-22T17:45:34;1.90;;;1.08;;
40953;SDS011;26686;50.130;8.710;2022-12-22T17:50:35;2.88;;;1.58;;
40953;SDS011;26686;50.130;8.710;2022-12-22T17:55:37;3.10;;;1.50;;
40953;SDS011;26686;50.130;8.710;2022-12-22T18:00:58;4.05;;;1.80;;
40953;SDS011;26686;50.130;8.710;2022-12-22T18:05:59;3.10;;;1.80;;
40953;SDS011;26686;50.130;8.710;2022-12-22T18:11:01;2.53;;;1.70;;
40953;SDS011;26686;50.130;8.710;2022-12-22T18:16:02;5.55;;;3.38;;
40953;SDS011;26686;50.130;8.710;2022-12-22T18:21:04;5.35;;;3.22;;
40953;SDS011;26686;50.130;8.710;2022-12-22T18:26:09;4.97;;;3.10;;
40953;SDS011;26686;50.130;8.710;2022-12-22T18:31:19;5.35;;;3.17;;
40953;SDS011;26686;50.130;8.710;2022-12-22T18:36:26;5.55;;;3.28;;
40953;SDS011;26686;50.130;8.710;2022-12-22T18:41:31;6.10;;;3.58;;
40953;SDS011;26686;50.130;8.710;2022-12-22T18:51:36;8.55;;;4.65;;
40953;SDS011;26686;50.130;8.710;2022-12-22T18:56:38;8.38;;;4.35;;
40953;SDS011;26686;50.130;8.710;2022-12-22T19:01:39;8.90;;;4.40;;
40953;SDS011;26686;50.130;8.710;2022-12-22T19:06:41;12.48;;;5.30;;
40953;SDS011;26686;50.130;8.710;2022-12-22T19:11:43;10.32;;;5.05;;
40953;SDS011;26686;50.130;8.710;2022-12-22T19:16:44;10.07;;;4.97;;
40953;SDS011;26686;50.130;8.710;2022-12-22T19:21:47;16.42;;;6.47;;
40953;SDS011;26686;50.130;8.710;2022-12-22T19:26:49;16.25;;;6.43;;
40953;SDS011;26686;50.130;8.710;2022-12-22T19:31:51;12.18;;;5.90;;
40953;SDS011;26686;50.130;8.710;2022-12-22T19:36:52;14.27;;;5.43;;
40953;SDS011;26686;50.130;8.710;2022-12-22T19:41:54;14.15;;;5.90;;
40953;SDS011;26686;50.130;8.710;2022-12-22T19:46:56;18.08;;;6.05;;
40953;SDS011;26686;50.130;8.710;2022-12-22T19:52:01;21.52;;;7.20;;
40953;SDS011;26686;50.130;8.710;2022-12-22T19:57:05;20.65;;;7.40;;
40953;SDS011;26686;50.130;8.710;2022-12-22T20:07:22;18.48;;;7.47;;
40953;SDS011;26686;50.130;8.710;2022-12-22T20:12:32;18.15;;;6.18;;
40953;SDS011;26686;50.130;8.710;2022-12-22T20:17:35;15.43;;;6.13;;
40953;SDS011;26686;50.130;8.710;2022-12-22T20:22:37;20.02;;;6.80;;
40953;SDS011;26686;50.130;8.710;2022-12-22T20:27:39;18.20;;;6.43;;
40953;SDS011;26686;50.130;8.710;2022-12-22T20:32:40;16.90;;;6.32;;
40953;SDS011;26686;50.130;8.710;2022-12-22T20:37:42;16.42;;;6.15;;
40953;SDS011;26686;50.130;8.710;2022-12-22T20:42:43;22.20;;;5.85;;
40953;SDS011;26686;50.130;8.710;2022-12-22T20:47:45;21.77;;;6.57;;
40953;SDS011;26686;50.130;8.710;2022-12-22T20:52:47;20.17;;;7.18;;
40953;SDS011;26686;50.130;8.710;2022-12-22T20:57:49;20.95;;;8.15;;
40953;SDS011;26686;50.130;8.710;2022-12-22T21:02:51;15.40;;;5.88;;
40953;SDS011;26686;50.130;8.710;2022-12-22T21:07:53;18.80;;;6.03;;
40953;SDS011;26686;50.130;8.710;2022-12-22T21:12:54;15.88;;;5.75;;
40953;SDS011;26686;50.130;8.710;2022-12-22T21:17:56;17.63;;;4.97;;
40953;SDS011;26686;50.130;8.710;2022-12-22T21:22:59;14.85;;;5.70;;
40953;SDS011;26686;50.130;8.710;2022-12-22T21:28:00;15.02;;;4.85;;
40953;SDS011;26686;50.130;8.710;2022-12-22T21:33:02;12.38;;;4.65;;
40953;SDS011;26686;50.130;8.710;2022-12-22T21:38:04;12.48;;;5.35;;
40953;SDS011;26686;50.130;8.710;2022-12-22T21:43:06;10.23;;;5.07;;
40953;SDS011;26686;50.130;8.710;2022-12-22T21:48:13;10.82;;;5.65;;
40953;SDS011;26686;50.130;8.710;2022-12-22T21:53:19;10.90;;;5.78;;
40953;SDS011;26686;50.130;8.710;2022-12-22T21:58:23;12.70;;;5.00;;
40953;SDS011;26686;50.130;8.710;2022-12-22T22:03:24;9.88;;;4.85;;
40953;SDS011;26686;50.130;8.710;2022-12-22T22:08:26;9.00;;;4.45;;
40953;SDS011;26686;50.130;8.710;2022-12-22T22:13:27;10.10;;;4.70;;
40953;SDS011;26686;50.130;8.710;2022-12-22T22:18:28;7.18;;;4.40;;
40953;SDS011;26686;50.130;8.710;2022-12-22T22:23:30;9.45;;;4.75;;
40953;SDS011;26686;50.130;8.710;2022-12-22T22:28:31;8.73;;;4.95;;
40953;SDS011;26686;50.130;8.710;2022-12-22T22:33:33;9.48;;;5.20;;
40953;SDS011;26686;50.130;8.710;2022-12-22T22:38:36;9.63;;;4.93;;
40953;SDS011;26686;50.130;8.710;2022-12-22T22:43:37;6.57;;;4.15;;
40953;SDS011;26686;50.130;8.710;2022-12-22T22:48:39;9.10;;;4.28;;
40953;SDS011;26686;50.130;8.710;2022-12-22T22:53:40;7.72;;;5.07;;
40953;SDS011;26686;50.130;8.710;2022-12-22T22:58:42;7.75;;;4.85;;
40953;SDS011;26686;50.130;8.710;2022-12-22T23:03:43;8.75;;;5.07;;
40953;SDS011;26686;50.130;8.710;2022-12-22T23:08:46;8.13;;;4.32;;
40953;SDS011;26686;50.130;8.710;2022-12-22T23:13:48;8.77;;;4.55;;
40953;SDS011;26686;50.130;8.710;2022-12-22T23:18:50;10.07;;;5.60;;
40953;SDS011;26686;50.130;8.710;2022-12-22T23:23:53;7.85;;;4.55;;
40953;SDS011;26686;50.130;8.710;2022-12-22T23:28:56;9.02;;;5.30;;
40953;SDS011;26686;50.130;8.710;2022-12-22T23:34:03;7.85;;;5.03;;
40953;SDS011;26686;50.130;8.710;2022-12-22T23:39:05;8.07;;;4.65;;
40953;SDS011;26686;50.130;8.710;2022-12-22T23:44:07;5.63;;;4.80;;
40953;SDS011;26686;50.130;8.710;2022-12-22T23:49:09;7.38;;;5.57;;
40953;SDS011;26686;50.130;8.710;2022-12-22T23:54:14;5.70;;;4.40;;
40953;SDS011;26686;50.130;8.710;2022-12-22T23:59:16;6.32;;;4.90;;
